createdAt,value
2019-02-15T00:01:29.349Z,1.80
2019-02-15T00:03:59.583Z,1.70
2019-02-15T00:06:29.809Z,1.60
2019-02-15T00:09:00.027Z,1.50
2019-02-15T00:11:30.200Z,1.40
2019-02-15T00:14:00.450Z,1.50
2019-02-15T00:16:30.725Z,1.60
2019-02-15T00:19:09.553Z,1.60
2019-02-15T00:21:50.856Z,1.50
2019-02-15T00:24:21.076Z,1.50
2019-02-15T00:26:51.392Z,1.50
2019-02-15T00:29:22.474Z,1.40
2019-02-15T00:31:52.624Z,1.30
2019-02-15T00:34:22.902Z,1.20
2019-02-15T00:36:53.311Z,1.10
2019-02-15T00:39:23.363Z,1.00
2019-02-15T00:41:53.531Z,0.80
2019-02-15T00:44:23.845Z,0.90
2019-02-15T00:47:04.254Z,0.90
2019-02-15T00:49:41.822Z,0.90
2019-02-15T00:52:33.752Z,0.80
2019-02-15T00:55:29.162Z,0.80
2019-02-15T00:58:14.746Z,0.70
2019-02-15T01:01:09.752Z,0.60
2019-02-15T01:04:01.678Z,0.50
2019-02-15T01:06:55.040Z,0.40
2019-02-15T01:09:39.496Z,0.30
2019-02-15T01:12:22.724Z,0.30
2019-02-15T01:14:52.899Z,0.20
2019-02-15T01:17:23.033Z,0.10
2019-02-15T01:19:53.380Z,0.20
2019-02-15T01:22:23.643Z,0.40
2019-02-15T01:24:53.799Z,0.40
2019-02-15T01:27:51.801Z,0.50
2019-02-15T01:30:54.074Z,0.60
2019-02-15T01:33:49.283Z,0.70
2019-02-15T01:36:25.953Z,0.90
2019-02-15T01:39:13.683Z,1.00
2019-02-15T01:41:53.121Z,1.10
2019-02-15T01:44:37.063Z,1.20
2019-02-15T01:47:14.453Z,1.10
2019-02-15T01:49:44.764Z,1.10
2019-02-15T01:52:14.935Z,0.90
2019-02-15T01:54:45.108Z,0.80
2019-02-15T01:57:15.338Z,0.90
2019-02-15T01:59:45.580Z,0.90
2019-02-15T02:02:15.744Z,1.00
2019-02-15T02:04:45.949Z,1.10
2019-02-15T02:07:16.137Z,1.10
2019-02-15T02:09:46.311Z,1.10
2019-02-15T02:12:16.508Z,1.00
2019-02-15T02:14:46.606Z,1.00
2019-02-15T02:17:16.781Z,1.00
2019-02-15T02:19:46.953Z,1.00
2019-02-15T02:22:17.156Z,1.10
2019-02-15T02:24:50.589Z,1.10
2019-02-15T02:27:20.720Z,1.10
2019-02-15T02:29:50.900Z,1.10
2019-02-15T02:32:22.060Z,1.10
2019-02-15T02:34:52.192Z,1.20
2019-02-15T02:37:22.387Z,1.30
2019-02-15T02:39:52.682Z,1.30
2019-02-15T02:42:22.787Z,1.30
2019-02-15T02:44:53.069Z,1.40
2019-02-15T02:47:23.328Z,1.50
2019-02-15T02:49:53.454Z,1.50
2019-02-15T02:52:23.821Z,1.50
2019-02-15T02:54:54.120Z,1.40
2019-02-15T02:57:24.440Z,1.40
2019-02-15T02:59:54.610Z,1.40
2019-02-15T03:02:24.861Z,1.40
2019-02-15T03:04:55.018Z,1.40
2019-02-15T03:07:25.320Z,1.40
2019-02-15T03:09:55.546Z,1.40
2019-02-15T03:12:25.782Z,1.40
2019-02-15T03:14:55.973Z,1.40
2019-02-15T03:17:26.214Z,1.50
2019-02-15T03:19:56.454Z,1.50
2019-02-15T03:22:26.780Z,1.70
2019-02-15T03:24:57.021Z,1.80
2019-02-15T03:27:27.161Z,1.80
2019-02-15T03:29:57.344Z,1.90
2019-02-15T03:32:27.635Z,1.90
2019-02-15T03:34:58.801Z,1.80
2019-02-15T03:37:54.090Z,1.80
2019-02-15T03:40:30.852Z,1.80
2019-02-15T03:43:01.021Z,1.70
2019-02-15T03:45:31.174Z,1.60
2019-02-15T03:48:01.293Z,1.50
2019-02-15T03:50:31.546Z,1.50
2019-02-15T03:53:01.664Z,1.40
2019-02-15T03:55:32.018Z,1.40
2019-02-15T03:58:02.292Z,1.40
2019-02-15T04:00:32.393Z,1.40
2019-02-15T04:03:02.574Z,1.40
2019-02-15T04:05:32.863Z,1.30
2019-02-15T04:08:02.977Z,1.30
2019-02-15T04:10:33.179Z,1.30
2019-02-15T04:13:03.443Z,1.30
2019-02-15T04:15:33.706Z,1.30
2019-02-15T04:18:03.825Z,1.20
2019-02-15T04:20:34.095Z,1.10
2019-02-15T04:23:04.359Z,1.10
2019-02-15T04:25:34.540Z,1.00
2019-02-15T04:28:04.764Z,0.90
2019-02-15T04:30:35.021Z,0.80
2019-02-15T04:33:05.339Z,0.80
2019-02-15T04:35:35.560Z,0.70
2019-02-15T04:38:06.623Z,0.70
2019-02-15T04:40:36.664Z,0.60
2019-02-15T04:43:06.915Z,0.70
2019-02-15T04:45:37.027Z,0.60
2019-02-15T04:48:07.133Z,0.60
2019-02-15T04:50:37.369Z,0.60
2019-02-15T04:53:07.554Z,0.50
2019-02-15T04:55:37.706Z,0.50
2019-02-15T04:58:07.909Z,0.60
2019-02-15T05:00:38.250Z,0.60
2019-02-15T05:03:08.424Z,0.60
2019-02-15T05:05:38.690Z,0.60
2019-02-15T05:08:08.947Z,0.60
2019-02-15T05:10:39.100Z,0.60
2019-02-15T05:13:09.355Z,0.50
2019-02-15T05:15:39.615Z,0.50
2019-02-15T05:18:09.844Z,0.40
2019-02-15T05:20:39.965Z,0.30
2019-02-15T05:23:10.171Z,0.30
2019-02-15T05:25:40.322Z,0.20
2019-02-15T05:28:10.517Z,0.10
2019-02-15T05:30:40.573Z,0.10
2019-02-15T05:33:10.753Z,0.00
2019-02-15T05:35:40.913Z,0.00
2019-02-15T05:38:11.370Z,0.00
2019-02-15T05:40:41.552Z,0.00
2019-02-15T05:43:11.781Z,0.00
2019-02-15T05:45:42.039Z,0.10
2019-02-15T05:48:12.298Z,0.20
2019-02-15T05:50:42.549Z,0.30
2019-02-15T05:53:12.712Z,0.40
2019-02-15T05:55:42.880Z,0.40
2019-02-15T05:58:13.134Z,0.40
2019-02-15T06:00:43.476Z,0.40
2019-02-15T06:03:13.899Z,0.40
2019-02-15T06:05:44.132Z,0.30
2019-02-15T06:08:14.369Z,0.30
2019-02-15T06:10:44.588Z,0.30
2019-02-15T06:13:14.821Z,0.20
2019-02-15T06:15:45.063Z,0.30
2019-02-15T06:18:15.239Z,0.20
2019-02-15T06:20:45.511Z,0.30
2019-02-15T06:23:15.741Z,0.30
2019-02-15T06:25:46.016Z,0.30
2019-02-15T06:28:16.223Z,0.40
2019-02-15T06:30:46.425Z,0.50
2019-02-15T06:33:16.625Z,0.50
2019-02-15T06:35:46.861Z,0.60
2019-02-15T06:38:17.021Z,0.60
2019-02-15T06:40:47.136Z,0.50
2019-02-15T06:43:18.270Z,0.50
2019-02-15T06:45:48.430Z,0.50
2019-02-15T06:48:18.616Z,0.50
2019-02-15T06:50:48.890Z,0.50
2019-02-15T06:53:18.976Z,0.60
2019-02-15T06:55:49.101Z,0.70
2019-02-15T06:58:19.365Z,0.80
2019-02-15T07:01:11.501Z,0.90
2019-02-15T07:04:16.026Z,1.00
2019-02-15T07:06:46.113Z,1.10
2019-02-15T07:09:16.117Z,1.20
2019-02-15T07:11:46.319Z,1.20
2019-02-15T07:14:16.411Z,1.20
2019-02-15T07:16:46.603Z,1.30
2019-02-15T07:19:16.804Z,1.30
2019-02-15T07:21:46.908Z,1.40
2019-02-15T07:24:16.964Z,1.40
2019-02-15T07:26:52.728Z,1.50
2019-02-15T07:29:22.887Z,1.60
2019-02-15T07:31:53.038Z,1.70
2019-02-15T07:34:23.236Z,1.80
2019-02-15T07:36:53.349Z,1.90
2019-02-15T07:39:23.652Z,2.00
2019-02-15T07:41:53.850Z,2.00
2019-02-15T07:44:25.024Z,2.10
2019-02-15T07:46:55.592Z,2.20
2019-02-15T07:49:27.155Z,2.30
2019-02-15T07:51:57.501Z,2.40
2019-02-15T07:54:27.763Z,2.50
2019-02-15T07:56:58.541Z,2.60
2019-02-15T07:59:28.678Z,2.70
2019-02-15T08:02:01.881Z,2.80
2019-02-15T08:04:30.392Z,2.90
2019-02-15T08:07:00.279Z,3.00
2019-02-15T08:09:30.395Z,3.10
2019-02-15T08:12:00.807Z,3.20
2019-02-15T08:14:31.038Z,3.30
2019-02-15T08:17:01.364Z,3.30
2019-02-15T08:19:31.982Z,3.40
2019-02-15T08:22:01.963Z,3.50
2019-02-15T08:24:32.078Z,3.50
2019-02-15T08:27:02.122Z,3.60
2019-02-15T08:29:33.073Z,3.70
2019-02-15T08:32:03.211Z,3.80
2019-02-15T08:34:33.621Z,3.90
2019-02-15T08:37:03.934Z,4.00
2019-02-15T08:39:34.066Z,4.10
2019-02-15T08:42:04.674Z,4.20
2019-02-15T08:44:35.042Z,4.30
2019-02-15T08:47:06.075Z,4.30
2019-02-15T08:49:36.308Z,4.40
2019-02-15T08:52:06.189Z,4.30
2019-02-15T08:54:36.287Z,4.40
2019-02-15T08:57:06.221Z,4.60
2019-02-15T08:59:36.306Z,4.70
2019-02-15T09:02:25.291Z,4.70
2019-02-15T09:04:55.408Z,4.90
2019-02-15T09:07:25.572Z,5.10
2019-02-15T09:09:55.803Z,5.30
2019-02-15T09:12:25.675Z,5.40
2019-02-15T09:14:55.794Z,5.50
2019-02-15T09:17:27.378Z,5.60
2019-02-15T09:19:57.706Z,5.70
2019-02-15T09:22:28.138Z,5.90
2019-02-15T09:24:58.233Z,6.00
2019-02-15T09:27:33.841Z,6.10
2019-02-15T09:30:03.787Z,6.30
2019-02-15T09:32:34.202Z,6.50
2019-02-15T09:35:04.692Z,6.60
2019-02-15T09:37:35.287Z,6.70
2019-02-15T09:40:05.776Z,6.80
2019-02-15T09:42:35.938Z,7.00
2019-02-15T09:45:07.651Z,7.10
2019-02-15T09:47:39.027Z,7.20
2019-02-15T09:50:14.852Z,7.30
2019-02-15T09:52:45.074Z,7.40
2019-02-15T09:55:15.342Z,7.50
2019-02-15T09:57:45.582Z,7.70
2019-02-15T10:00:15.834Z,7.90
2019-02-15T10:02:46.054Z,8.00
2019-02-15T10:05:16.514Z,8.10
2019-02-15T10:07:46.759Z,8.40
2019-02-15T10:10:16.944Z,8.40
2019-02-15T10:12:47.235Z,8.50
2019-02-15T10:15:17.422Z,8.60
2019-02-15T10:17:47.522Z,8.60
2019-02-15T10:20:17.737Z,8.80
2019-02-15T10:22:48.056Z,9.00
2019-02-15T10:25:18.185Z,9.10
2019-02-15T10:27:48.423Z,9.30
2019-02-15T10:30:18.502Z,9.20
2019-02-15T10:32:48.645Z,9.30
2019-02-15T10:35:18.937Z,9.40
2019-02-15T10:37:49.133Z,9.40
2019-02-15T10:40:19.272Z,9.60
2019-02-15T10:42:49.169Z,9.90
2019-02-15T10:45:19.305Z,10.00
2019-02-15T10:47:49.557Z,10.10
2019-02-15T10:50:20.728Z,10.30
2019-02-15T10:52:50.927Z,10.50
2019-02-15T10:55:21.165Z,10.60
2019-02-15T10:57:51.387Z,10.80
2019-02-15T11:00:21.733Z,10.80
2019-02-15T11:02:52.013Z,10.90
2019-02-15T11:05:22.313Z,11.00
2019-02-15T11:07:52.537Z,11.20
2019-02-15T11:10:22.709Z,11.20
2019-02-15T11:12:52.969Z,11.50
2019-02-15T11:15:23.087Z,11.60
2019-02-15T11:17:53.170Z,11.70
2019-02-15T11:20:23.626Z,11.70
2019-02-15T11:22:53.799Z,11.80
2019-02-15T11:25:23.982Z,11.90
2019-02-15T11:27:54.125Z,12.00
2019-02-15T11:30:24.456Z,12.20
2019-02-15T11:32:54.684Z,12.30
2019-02-15T11:35:24.888Z,12.50
2019-02-15T11:37:55.086Z,12.60
2019-02-15T11:40:25.222Z,12.90
2019-02-15T11:42:55.450Z,13.60
2019-02-15T11:45:25.749Z,14.20
2019-02-15T11:47:55.891Z,14.70
2019-02-15T11:50:26.195Z,15.00
2019-02-15T11:52:57.235Z,15.30
2019-02-15T11:55:28.543Z,15.60
2019-02-15T11:57:58.843Z,15.70
2019-02-15T12:00:34.259Z,15.90
2019-02-15T12:03:04.933Z,16.00
2019-02-15T12:05:35.127Z,15.90
2019-02-15T12:08:05.358Z,15.50
2019-02-15T12:10:35.508Z,15.70
2019-02-15T12:13:05.831Z,16.10
2019-02-15T12:15:36.273Z,16.10
2019-02-15T12:18:06.690Z,16.10
2019-02-15T12:20:36.845Z,16.40
2019-02-15T12:23:07.076Z,16.90
2019-02-15T12:25:37.403Z,17.10
2019-02-15T12:28:07.909Z,17.10
2019-02-15T12:30:38.157Z,17.40
2019-02-15T12:33:08.343Z,17.40
2019-02-15T12:35:38.261Z,17.90
2019-02-15T12:38:08.564Z,17.90
2019-02-15T12:40:38.452Z,17.90
2019-02-15T12:43:08.636Z,18.30
2019-02-15T12:45:39.145Z,18.60
2019-02-15T12:48:09.358Z,18.80
2019-02-15T12:50:39.644Z,18.70
2019-02-15T12:53:09.926Z,18.60
2019-02-15T12:55:40.943Z,18.90
2019-02-15T12:58:11.266Z,19.70
2019-02-15T13:00:41.568Z,19.60
2019-02-15T13:03:11.846Z,19.70
2019-02-15T13:05:42.050Z,19.90
2019-02-15T13:08:12.261Z,20.40
2019-02-15T13:10:43.261Z,20.50
2019-02-15T13:13:13.492Z,20.10
2019-02-15T13:15:44.167Z,20.60
2019-02-15T13:18:14.411Z,21.10
2019-02-15T13:20:44.622Z,20.80
2019-02-15T13:23:14.990Z,20.40
2019-02-15T13:25:45.110Z,20.10
2019-02-15T13:28:15.291Z,21.00
2019-02-15T13:30:45.583Z,21.50
2019-02-15T13:33:15.777Z,21.50
2019-02-15T13:35:45.884Z,22.40
2019-02-15T13:38:15.968Z,21.90
2019-02-15T13:40:46.149Z,22.10
2019-02-15T13:43:16.469Z,22.50
2019-02-15T13:45:46.858Z,21.80
2019-02-15T13:48:17.090Z,21.50
2019-02-15T13:50:47.213Z,21.80
2019-02-15T13:53:17.487Z,22.20
2019-02-15T13:55:47.770Z,21.90
2019-02-15T13:58:19.252Z,22.20
2019-02-15T14:00:49.579Z,22.50
2019-02-15T14:03:20.093Z,23.00
2019-02-15T14:05:50.421Z,21.90
2019-02-15T14:08:20.724Z,21.80
2019-02-15T14:10:51.047Z,21.70
2019-02-15T14:13:21.336Z,22.60
2019-02-15T14:15:51.610Z,23.20
2019-02-15T14:18:21.687Z,22.50
2019-02-15T14:20:52.107Z,22.30
2019-02-15T14:23:22.365Z,22.70
2019-02-15T14:25:52.601Z,22.60
2019-02-15T14:28:22.809Z,23.00
2019-02-15T14:30:53.130Z,23.20
2019-02-15T14:33:23.252Z,23.40
2019-02-15T14:35:53.466Z,23.00
2019-02-15T14:38:23.906Z,23.30
2019-02-15T14:40:54.048Z,23.60
2019-02-15T14:43:24.245Z,23.10
2019-02-15T14:45:54.394Z,23.20
2019-02-15T14:48:24.607Z,23.30
2019-02-15T14:50:54.806Z,22.80
2019-02-15T14:53:25.050Z,23.00
2019-02-15T14:55:55.290Z,22.80
2019-02-15T14:58:25.495Z,22.50
2019-02-15T15:00:56.716Z,21.80
2019-02-15T15:03:26.976Z,22.40
2019-02-15T15:05:57.145Z,22.90
2019-02-15T15:08:27.500Z,23.00
2019-02-15T15:10:57.721Z,23.40
2019-02-15T15:13:27.900Z,23.50
2019-02-15T15:15:57.957Z,23.60
2019-02-15T15:18:28.199Z,23.50
2019-02-15T15:20:58.419Z,23.40
2019-02-15T15:23:28.609Z,23.40
2019-02-15T15:25:58.823Z,23.50
2019-02-15T15:28:29.072Z,23.00
2019-02-15T15:30:59.367Z,22.40
2019-02-15T15:33:29.571Z,21.90
2019-02-15T15:35:59.947Z,21.60
2019-02-15T15:38:30.133Z,21.40
2019-02-15T15:41:02.054Z,21.20
2019-02-15T15:43:32.261Z,20.90
2019-02-15T15:46:02.578Z,21.10
2019-02-15T15:48:32.787Z,20.70
2019-02-15T15:51:02.980Z,20.10
2019-02-15T15:53:33.185Z,19.90
2019-02-15T15:56:03.625Z,19.60
2019-02-15T15:58:34.038Z,19.40
2019-02-15T16:01:05.270Z,19.30
2019-02-15T16:03:36.962Z,18.80
2019-02-15T16:06:07.330Z,18.10
2019-02-15T16:08:37.514Z,17.60
2019-02-15T16:11:08.177Z,17.60
2019-02-15T16:13:38.603Z,17.30
2019-02-15T16:16:08.963Z,17.20
2019-02-15T16:18:39.068Z,17.20
2019-02-15T16:21:09.237Z,17.40
2019-02-15T16:23:39.481Z,17.50
2019-02-15T16:26:09.625Z,17.60
2019-02-15T16:28:39.826Z,17.50
2019-02-15T16:31:10.116Z,17.10
2019-02-15T16:33:40.285Z,16.80
2019-02-15T16:36:10.413Z,16.10
2019-02-15T16:38:40.636Z,15.40
2019-02-15T16:41:10.802Z,14.60
2019-02-15T16:43:41.000Z,13.90
2019-02-15T16:46:11.326Z,13.30
2019-02-15T16:48:42.359Z,12.70
2019-02-15T16:51:12.704Z,12.10
2019-02-15T16:53:42.999Z,11.70
2019-02-15T16:56:13.108Z,11.30
2019-02-15T16:58:43.287Z,10.90
2019-02-15T17:01:16.694Z,10.50
2019-02-15T17:03:48.080Z,10.30
2019-02-15T17:06:19.219Z,9.90
2019-02-15T17:08:50.284Z,9.70
2019-02-15T17:11:20.533Z,9.50
2019-02-15T17:13:50.780Z,9.30
2019-02-15T17:16:21.044Z,9.20
2019-02-15T17:18:52.404Z,9.00
2019-02-15T17:21:23.177Z,8.90
2019-02-15T17:23:53.685Z,8.70
2019-02-15T17:26:24.638Z,8.50
2019-02-15T17:28:55.777Z,8.30
2019-02-15T17:31:27.883Z,8.20
2019-02-15T17:34:08.079Z,8.20
2019-02-15T17:36:39.780Z,8.10
2019-02-15T17:39:12.380Z,8.10
2019-02-15T17:41:44.794Z,8.10
2019-02-15T17:44:16.694Z,8.10
2019-02-15T17:46:48.098Z,8.00
2019-02-15T17:49:19.617Z,8.10
2019-02-15T17:51:51.248Z,8.00
2019-02-15T17:54:22.823Z,8.00
2019-02-15T17:56:54.450Z,8.00
2019-02-15T17:59:25.811Z,8.00
2019-02-15T18:01:57.432Z,8.00
2019-02-15T18:04:29.280Z,8.00
2019-02-15T18:07:01.736Z,8.10
2019-02-15T18:09:33.570Z,8.20
2019-02-15T18:12:04.820Z,8.30
2019-02-15T18:14:36.520Z,8.30
2019-02-15T18:17:07.816Z,8.50
2019-02-15T18:19:47.099Z,8.60
2019-02-15T18:22:12.549Z,8.70
2019-02-15T18:24:44.030Z,8.60
2019-02-15T18:27:15.273Z,8.50
2019-02-15T18:29:47.670Z,8.40
2019-02-15T18:32:19.221Z,8.40
2019-02-15T18:34:50.414Z,8.40
2019-02-15T18:37:21.966Z,8.30
2019-02-15T18:39:53.426Z,8.20
2019-02-15T18:42:25.230Z,8.10
2019-02-15T18:44:57.020Z,8.10
2019-02-15T18:47:28.388Z,8.00
2019-02-15T18:50:00.351Z,8.00
2019-02-15T18:52:32.056Z,7.90
2019-02-15T18:55:03.385Z,7.70
2019-02-15T18:57:36.772Z,7.70
2019-02-15T19:00:09.920Z,7.60
2019-02-15T19:02:41.331Z,7.50
2019-02-15T19:05:13.878Z,7.40
2019-02-15T19:07:46.229Z,7.30
2019-02-15T19:10:21.105Z,7.20
2019-02-15T19:12:54.044Z,7.10
2019-02-15T19:15:28.457Z,7.20
2019-02-15T19:18:01.552Z,7.20
2019-02-15T19:20:33.042Z,7.20
2019-02-15T19:23:04.745Z,7.40
2019-02-15T19:25:38.469Z,7.40
2019-02-15T19:28:10.641Z,7.60
2019-02-15T19:30:41.943Z,7.50
2019-02-15T19:33:13.558Z,7.40
2019-02-15T19:35:44.912Z,7.40
2019-02-15T19:38:16.583Z,7.30
2019-02-15T19:40:47.788Z,7.40
2019-02-15T19:43:19.533Z,7.50
2019-02-15T19:45:52.252Z,7.50
2019-02-15T19:48:23.944Z,7.50
2019-02-15T19:50:55.187Z,7.40
2019-02-15T19:53:30.240Z,7.30
2019-02-15T19:56:02.093Z,7.40
2019-02-15T19:58:33.508Z,7.60
2019-02-15T20:01:05.113Z,7.70
2019-02-15T20:03:36.968Z,7.50
2019-02-15T20:06:08.397Z,7.70
2019-02-15T20:08:40.736Z,7.70
2019-02-15T20:11:12.284Z,7.50
2019-02-15T20:13:43.560Z,7.40
2019-02-15T20:16:14.912Z,7.40
2019-02-15T20:18:46.064Z,7.40
2019-02-15T20:21:17.504Z,7.40
2019-02-15T20:23:48.676Z,7.30
2019-02-15T20:26:20.278Z,7.30
2019-02-15T20:28:51.616Z,7.30
2019-02-15T20:31:23.322Z,7.40
2019-02-15T20:33:55.487Z,7.40
2019-02-15T20:36:26.637Z,7.40
2019-02-15T20:38:58.306Z,7.50
2019-02-15T20:41:29.731Z,7.60
2019-02-15T20:44:00.785Z,7.50
2019-02-15T20:46:32.133Z,7.50
2019-02-15T20:49:04.856Z,7.40
2019-02-15T20:51:35.968Z,7.40
2019-02-15T20:54:07.316Z,7.50
2019-02-15T20:56:38.713Z,7.40
2019-02-15T20:59:10.103Z,7.30
2019-02-15T21:01:41.087Z,7.20
2019-02-15T21:04:12.741Z,7.10
2019-02-15T21:06:43.778Z,6.90
2019-02-15T21:09:15.159Z,6.90
2019-02-15T21:11:47.530Z,6.80
2019-02-15T21:14:19.025Z,7.00
2019-02-15T21:16:50.633Z,7.00
2019-02-15T21:19:21.701Z,7.10
2019-02-15T21:21:53.288Z,7.00
2019-02-15T21:24:24.523Z,7.10
2019-02-15T21:26:55.910Z,7.10
2019-02-15T21:29:26.986Z,7.10
2019-02-15T21:31:57.926Z,7.10
2019-02-15T21:34:28.620Z,7.10
2019-02-15T21:36:59.118Z,7.00
2019-02-15T21:39:29.648Z,7.00
2019-02-15T21:41:59.851Z,7.00
2019-02-15T21:44:30.193Z,6.90
2019-02-15T21:47:00.369Z,6.90
2019-02-15T21:49:30.621Z,6.90
2019-02-15T21:52:00.864Z,6.80
2019-02-15T21:54:31.027Z,6.80
2019-02-15T21:57:01.181Z,6.80
2019-02-15T21:59:31.987Z,6.80
2019-02-15T22:02:02.258Z,6.80
2019-02-15T22:04:32.416Z,6.80
2019-02-15T22:07:02.644Z,6.80
2019-02-15T22:09:32.901Z,6.80
2019-02-15T22:12:02.987Z,6.80
2019-02-15T22:14:34.076Z,6.80
2019-02-15T22:17:04.231Z,6.80
2019-02-15T22:19:34.407Z,6.80
2019-02-15T22:22:04.705Z,6.80
2019-02-15T22:24:34.878Z,6.70
2019-02-15T22:27:05.013Z,6.50
2019-02-15T22:29:35.238Z,6.50
2019-02-15T22:32:05.503Z,6.50
2019-02-15T22:34:35.706Z,6.50
2019-02-15T22:37:05.940Z,6.30
2019-02-15T22:39:36.187Z,6.20
2019-02-15T22:42:06.370Z,6.10
2019-02-15T22:44:36.625Z,6.00
2019-02-15T22:47:06.751Z,5.80
2019-02-15T22:49:43.342Z,5.70
2019-02-15T22:52:08.722Z,5.70
2019-02-15T22:54:39.308Z,5.50
2019-02-15T22:57:09.526Z,5.40
2019-02-15T22:59:40.663Z,5.30
2019-02-15T23:02:12.309Z,5.10
2019-02-15T23:04:42.520Z,5.00
2019-02-15T23:07:13.911Z,4.70
2019-02-15T23:09:44.230Z,4.40
2019-02-15T23:12:14.636Z,4.10
2019-02-15T23:14:45.123Z,3.80
2019-02-15T23:17:15.380Z,3.60
2019-02-15T23:19:45.545Z,3.40
2019-02-15T23:22:15.922Z,3.20
2019-02-15T23:24:46.024Z,3.00
2019-02-15T23:27:16.154Z,3.00
2019-02-15T23:29:46.396Z,2.90
2019-02-15T23:32:16.675Z,2.70
2019-02-15T23:34:46.772Z,2.50
2019-02-15T23:37:17.075Z,2.40
2019-02-15T23:39:47.417Z,2.30
2019-02-15T23:42:17.569Z,2.30
2019-02-15T23:44:47.883Z,2.30
2019-02-15T23:47:17.977Z,2.30
2019-02-15T23:49:48.196Z,2.20
2019-02-15T23:52:18.420Z,2.10
2019-02-15T23:54:48.601Z,2.00
2019-02-15T23:57:18.753Z,2.00
2019-02-15T23:59:48.981Z,2.20
